createdAt,value
2022-08-17T00:02:25.544Z,75.85
2022-08-17T00:05:29.569Z,74.18
2022-08-17T00:08:33.463Z,72.94
2022-08-17T00:11:36.933Z,73.03
2022-08-17T00:14:39.998Z,73.24
2022-08-17T00:17:41.745Z,72.81
2022-08-17T00:20:44.035Z,73.17
2022-08-17T00:23:49.586Z,74.40
2022-08-17T00:26:51.746Z,73.71
2022-08-17T00:29:54.860Z,73.88
2022-08-17T00:33:12.248Z,74.00
2022-08-17T00:36:18.430Z,75.06
2022-08-17T00:39:20.108Z,76.79
2022-08-17T00:42:21.872Z,76.19
2022-08-17T00:45:25.165Z,75.84
2022-08-17T00:48:30.008Z,74.19
2022-08-17T00:51:33.678Z,76.87
2022-08-17T00:54:42.008Z,76.74
2022-08-17T00:57:46.715Z,76.85
2022-08-17T01:00:50.024Z,78.86
2022-08-17T01:03:52.643Z,79.52
2022-08-17T01:06:58.241Z,80.92
2022-08-17T01:10:01.438Z,81.12
2022-08-17T01:13:03.790Z,79.33
2022-08-17T01:16:10.474Z,78.81
2022-08-17T01:19:18.854Z,77.64
2022-08-17T01:22:22.917Z,77.74
2022-08-17T01:25:25.090Z,76.63
2022-08-17T01:28:53.029Z,77.53
2022-08-17T01:31:55.638Z,77.50
2022-08-17T01:34:57.861Z,78.17
2022-08-17T01:38:00.989Z,78.44
2022-08-17T01:41:03.901Z,78.68
2022-08-17T01:44:06.434Z,78.63
2022-08-17T01:47:08.093Z,78.57
2022-08-17T01:50:11.190Z,78.92
2022-08-17T01:53:16.028Z,80.29
2022-08-17T01:56:19.023Z,79.62
2022-08-17T01:59:21.083Z,78.89
2022-08-17T02:02:30.644Z,78.03
2022-08-17T02:05:33.277Z,79.15
2022-08-17T02:08:37.311Z,82.21
2022-08-17T02:11:41.080Z,83.42
2022-08-17T02:14:42.726Z,84.25
2022-08-17T02:17:44.511Z,85.63
2022-08-17T02:20:46.167Z,88.57
2022-08-17T02:23:50.063Z,90.03
2022-08-17T02:26:51.736Z,88.84
2022-08-17T02:29:53.452Z,88.48
2022-08-17T02:32:55.615Z,86.34
2022-08-17T02:35:57.770Z,85.73
2022-08-17T02:39:00.845Z,85.07
2022-08-17T02:42:02.830Z,83.32
2022-08-17T02:45:06.590Z,82.11
2022-08-17T02:48:08.352Z,80.94
2022-08-17T02:51:10.070Z,81.26
2022-08-17T02:54:41.791Z,82.05
2022-08-17T02:57:34.783Z,82.30
2022-08-17T03:00:41.255Z,82.77
2022-08-17T03:03:43.019Z,81.98
2022-08-17T03:06:44.771Z,81.64
2022-08-17T03:09:47.865Z,81.62
2022-08-17T03:12:49.703Z,82.53
2022-08-17T03:15:51.770Z,83.77
2022-08-17T03:18:53.425Z,83.46
2022-08-17T03:21:55.602Z,82.88
2022-08-17T03:24:59.002Z,81.67
2022-08-17T03:28:01.123Z,81.97
2022-08-17T03:31:02.813Z,81.56
2022-08-17T03:34:04.538Z,81.96
2022-08-17T03:37:06.331Z,82.08
2022-08-17T03:40:10.421Z,82.40
2022-08-17T03:43:12.467Z,79.81
2022-08-17T03:46:34.742Z,81.82
2022-08-17T03:49:35.965Z,85.15
2022-08-17T03:52:37.721Z,85.85
2022-08-17T03:55:40.831Z,88.41
2022-08-17T03:58:42.486Z,91.32
2022-08-17T04:01:44.876Z,92.32
2022-08-17T04:04:46.894Z,91.12
2022-08-17T04:07:48.556Z,90.14
2022-08-17T04:10:54.757Z,87.64
2022-08-17T04:13:56.432Z,86.87
2022-08-17T04:16:58.053Z,85.40
2022-08-17T04:19:59.714Z,84.66
2022-08-17T04:23:02.330Z,84.21
2022-08-17T04:26:05.550Z,84.35
2022-08-17T04:29:07.307Z,83.45
2022-08-17T04:32:08.958Z,84.81
2022-08-17T04:35:10.619Z,84.39
2022-08-17T04:38:13.909Z,85.89
2022-08-17T04:41:16.990Z,84.42
2022-08-17T04:44:36.755Z,84.72
2022-08-17T04:47:39.643Z,84.93
2022-08-17T04:50:43.087Z,84.19
2022-08-17T04:53:46.250Z,83.99
2022-08-17T04:56:57.019Z,83.19
2022-08-17T04:59:58.742Z,85.00
2022-08-17T05:03:01.216Z,84.21
2022-08-17T05:06:03.397Z,84.61
2022-08-17T05:09:05.156Z,85.00
2022-08-17T05:12:08.315Z,84.80
2022-08-17T05:15:13.325Z,85.40
2022-08-17T05:18:15.924Z,85.36
2022-08-17T05:21:18.536Z,85.38
2022-08-17T05:24:42.592Z,86.30
2022-08-17T05:27:43.312Z,87.50
2022-08-17T05:30:49.271Z,86.62
2022-08-17T05:33:51.052Z,86.97
2022-08-17T05:36:52.787Z,90.05
2022-08-17T05:39:54.571Z,89.58
2022-08-17T05:43:05.615Z,89.04
2022-08-17T05:46:11.587Z,92.06
2022-08-17T05:49:14.862Z,89.08
2022-08-17T05:52:20.598Z,91.00
2022-08-17T05:55:28.706Z,91.23
2022-08-17T05:58:35.839Z,89.52
2022-08-17T06:01:43.855Z,91.68
2022-08-17T06:04:53.053Z,94.50
2022-08-17T06:08:00.157Z,94.53
2022-08-17T06:11:06.540Z,95.56
2022-08-17T06:14:22.093Z,98.72
2022-08-17T06:17:25.084Z,96.28
2022-08-17T06:20:29.670Z,98.99
2022-08-17T06:23:33.809Z,99.53
2022-08-17T06:26:42.763Z,98.41
2022-08-17T06:29:50.800Z,95.67
2022-08-17T06:32:53.323Z,98.71
2022-08-17T06:36:00.640Z,97.46
2022-08-17T06:39:09.264Z,98.96
2022-08-17T06:43:02.776Z,98.77
2022-08-17T06:45:41.949Z,94.12
2022-08-17T06:48:45.392Z,100.00
2022-08-17T06:51:51.487Z,100.00
2022-08-17T06:54:56.603Z,97.84
2022-08-17T06:58:00.218Z,94.27
2022-08-17T07:01:13.774Z,91.88
2022-08-17T07:04:17.284Z,90.46
2022-08-17T07:07:19.809Z,89.20
2022-08-17T07:10:22.302Z,88.93
2022-08-17T07:13:26.708Z,87.39
2022-08-17T07:16:33.004Z,88.08
2022-08-17T07:19:35.892Z,87.62
2022-08-17T07:22:57.711Z,88.55
2022-08-17T07:26:04.139Z,89.71
2022-08-17T07:29:06.016Z,90.98
2022-08-17T07:32:09.870Z,92.08
2022-08-17T07:35:15.159Z,91.83
2022-08-17T07:38:24.410Z,91.28
2022-08-17T07:41:53.504Z,91.59
2022-08-17T07:44:55.729Z,91.26
2022-08-17T07:48:00.634Z,89.15
2022-08-17T07:51:14.131Z,84.00
2022-08-17T07:54:20.948Z,81.23
2022-08-17T07:57:29.882Z,80.99
2022-08-17T08:00:33.047Z,79.16
2022-08-17T08:03:40.952Z,78.74
2022-08-17T08:06:48.007Z,79.40
2022-08-17T08:10:01.612Z,78.31
2022-08-17T08:13:06.862Z,78.49
2022-08-17T08:16:26.334Z,75.05
2022-08-17T08:19:30.632Z,77.68
2022-08-17T08:22:36.597Z,77.51
2022-08-17T08:25:50.897Z,75.75
2022-08-17T08:28:59.170Z,76.23
2022-08-17T08:32:07.156Z,75.54
2022-08-17T08:35:13.616Z,75.69
2022-08-17T08:38:18.677Z,75.88
2022-08-17T08:41:33.361Z,72.68
2022-08-17T08:44:59.681Z,73.99
2022-08-17T08:48:23.084Z,73.16
2022-08-17T08:51:36.312Z,73.94
2022-08-17T08:54:40.690Z,75.76
2022-08-17T08:57:46.146Z,74.34
2022-08-17T09:00:50.850Z,72.52
2022-08-17T09:04:24.828Z,72.24
2022-08-17T09:07:35.176Z,70.47
2022-08-17T09:10:42.107Z,69.16
2022-08-17T09:13:54.707Z,71.28
2022-08-17T09:17:00.516Z,69.28
2022-08-17T09:20:05.767Z,65.84
2022-08-17T09:23:13.733Z,65.99
2022-08-17T09:26:18.028Z,62.36
2022-08-17T09:29:20.877Z,62.82
2022-08-17T09:32:25.342Z,63.68
2022-08-17T09:35:36.648Z,62.19
2022-08-17T09:38:43.963Z,61.25
2022-08-17T09:41:49.037Z,61.54
2022-08-17T09:44:55.268Z,62.18
2022-08-17T09:48:01.866Z,59.23
2022-08-17T09:51:06.484Z,58.52
2022-08-17T09:54:38.123Z,57.92
2022-08-17T09:57:44.945Z,57.34
2022-08-17T10:00:49.793Z,55.24
2022-08-17T10:04:04.288Z,55.83
2022-08-17T10:07:08.824Z,55.43
2022-08-17T10:10:15.758Z,55.18
2022-08-17T10:13:20.823Z,55.63
2022-08-17T10:16:30.519Z,54.80
2022-08-17T10:19:36.440Z,56.81
2022-08-17T10:22:41.855Z,55.50
2022-08-17T10:25:55.263Z,55.38
2022-08-17T10:29:00.699Z,55.76
2022-08-17T10:32:06.316Z,57.43
2022-08-17T10:35:22.805Z,55.12
2022-08-17T10:38:35.689Z,53.34
2022-08-17T10:41:40.969Z,55.31
2022-08-17T10:44:48.390Z,53.56
2022-08-17T10:47:56.046Z,52.86
2022-08-17T10:51:00.860Z,52.00
2022-08-17T10:54:02.664Z,50.92
2022-08-17T10:57:23.101Z,50.04
2022-08-17T11:00:54.678Z,48.46
2022-08-17T11:03:57.445Z,48.86
2022-08-17T11:07:06.100Z,49.93
2022-08-17T11:10:22.792Z,51.06
2022-08-17T11:13:32.140Z,49.93
2022-08-17T11:16:42.540Z,50.29
2022-08-17T11:19:59.020Z,48.57
2022-08-17T11:23:12.323Z,46.89
2022-08-17T11:26:24.760Z,46.50
2022-08-17T11:29:30.375Z,45.99
2022-08-17T11:32:38.577Z,45.96
2022-08-17T11:35:52.849Z,44.39
2022-08-17T11:38:59.177Z,42.09
2022-08-17T11:42:05.570Z,44.52
2022-08-17T11:45:32.531Z,44.62
2022-08-17T11:48:38.081Z,42.98
2022-08-17T11:51:54.639Z,44.78
2022-08-17T11:55:12.212Z,42.65
2022-08-17T11:58:36.048Z,42.14
2022-08-17T12:01:55.035Z,39.57
2022-08-17T12:05:12.791Z,40.12
2022-08-17T12:08:18.171Z,40.92
2022-08-17T12:12:11.336Z,39.67
2022-08-17T12:18:18.155Z,40.43
2022-08-17T12:21:23.959Z,41.14
2022-08-17T12:24:32.116Z,41.99
2022-08-17T12:28:04.363Z,39.99
2022-08-17T12:30:59.718Z,41.49
2022-08-17T12:34:03.987Z,42.99
2022-08-17T12:37:07.384Z,42.69
2022-08-17T12:40:18.721Z,42.67
2022-08-17T12:43:22.447Z,42.29
2022-08-17T12:46:24.172Z,41.20
2022-08-17T12:49:30.920Z,39.18
2022-08-17T12:52:33.115Z,42.02
2022-08-17T12:55:36.378Z,40.84
2022-08-17T12:58:44.814Z,41.24
2022-08-17T13:01:46.618Z,41.24
2022-08-17T13:04:49.844Z,41.17
2022-08-17T13:07:52.145Z,39.88
2022-08-17T13:10:54.930Z,38.01
2022-08-17T13:14:07.933Z,39.13
2022-08-17T13:17:13.639Z,37.40
2022-08-17T13:20:16.890Z,36.83
2022-08-17T13:23:20.046Z,36.18
2022-08-17T13:26:25.132Z,37.24
2022-08-17T13:29:28.685Z,36.36
2022-08-17T13:32:35.082Z,35.88
2022-08-17T13:35:41.338Z,38.38
2022-08-17T13:38:45.862Z,37.13
2022-08-17T13:41:48.451Z,38.52
2022-08-17T13:44:50.062Z,38.07
2022-08-17T13:48:03.807Z,35.94
2022-08-17T13:51:24.593Z,35.72
2022-08-17T13:54:28.125Z,36.09
2022-08-17T13:57:29.880Z,33.53
2022-08-17T14:00:33.001Z,34.46
2022-08-17T14:03:34.715Z,35.92
2022-08-17T14:06:53.111Z,35.27
2022-08-17T14:09:57.621Z,35.54
2022-08-17T14:12:59.647Z,33.33
2022-08-17T14:16:01.366Z,36.06
2022-08-17T14:19:04.123Z,34.39
2022-08-17T14:22:12.386Z,32.65
2022-08-17T14:25:15.401Z,33.11
2022-08-17T14:28:17.055Z,33.30
2022-08-17T14:31:18.725Z,32.02
2022-08-17T14:34:20.697Z,32.44
2022-08-17T14:37:24.721Z,32.98
2022-08-17T14:40:26.452Z,32.21
2022-08-17T14:43:28.439Z,33.00
2022-08-17T14:46:30.267Z,32.90
2022-08-17T14:49:32.032Z,32.77
2022-08-17T14:52:35.326Z,32.75
2022-08-17T14:55:37.235Z,30.80
2022-08-17T14:58:39.211Z,32.07
2022-08-17T15:01:41.404Z,32.29
2022-08-17T15:04:45.634Z,30.93
2022-08-17T15:07:48.926Z,30.67
2022-08-17T15:10:50.606Z,32.14
2022-08-17T15:13:53.335Z,31.52
2022-08-17T15:16:55.335Z,31.06
2022-08-17T15:19:57.064Z,30.74
2022-08-17T15:23:00.210Z,31.84
2022-08-17T15:26:01.878Z,31.24
2022-08-17T15:29:03.630Z,30.99
2022-08-17T15:32:05.389Z,32.28
2022-08-17T15:35:08.100Z,31.31
2022-08-17T15:38:12.431Z,30.04
2022-08-17T15:41:15.320Z,30.84
2022-08-17T15:44:17.055Z,28.95
2022-08-17T15:47:18.795Z,28.60
2022-08-17T15:50:20.533Z,28.75
2022-08-17T15:53:23.559Z,27.75
2022-08-17T15:56:25.903Z,29.03
2022-08-17T15:59:27.539Z,28.53
2022-08-17T16:03:14.118Z,29.00
2022-08-17T16:05:51.699Z,27.87
2022-08-17T16:08:55.544Z,28.26
2022-08-17T16:11:58.195Z,28.51
2022-08-17T16:15:01.203Z,28.95
2022-08-17T16:18:03.254Z,28.16
2022-08-17T16:21:06.876Z,27.52
2022-08-17T16:24:12.880Z,27.63
2022-08-17T16:27:15.406Z,28.16
2022-08-17T16:30:18.027Z,27.20
2022-08-17T16:33:19.929Z,27.50
2022-08-17T16:36:21.728Z,26.68
2022-08-17T16:39:26.409Z,26.71
2022-08-17T16:42:30.032Z,26.34
2022-08-17T16:45:31.798Z,26.43
2022-08-17T16:48:33.442Z,25.57
2022-08-17T16:51:35.165Z,26.38
2022-08-17T16:54:38.738Z,25.94
2022-08-17T16:57:47.339Z,26.09
2022-08-17T17:00:52.283Z,27.06
2022-08-17T17:03:58.245Z,28.41
2022-08-17T17:07:04.493Z,27.90
2022-08-17T17:10:09.577Z,28.88
2022-08-17T17:13:13.308Z,29.09
2022-08-17T17:16:18.105Z,29.87
2022-08-17T17:19:27.916Z,30.90
2022-08-17T17:22:41.560Z,31.88
2022-08-17T17:25:53.676Z,31.36
2022-08-17T17:29:00.190Z,32.05
2022-08-17T17:32:11.121Z,30.93
2022-08-17T17:35:15.557Z,32.09
2022-08-17T17:38:19.243Z,31.61
2022-08-17T17:41:26.491Z,33.28
2022-08-17T17:44:30.454Z,33.71
2022-08-17T17:47:32.890Z,34.45
2022-08-17T17:50:36.799Z,35.98
2022-08-17T17:53:45.306Z,36.45
2022-08-17T17:56:51.256Z,37.31
2022-08-17T17:59:56.555Z,38.38
2022-08-17T18:03:06.683Z,39.84
2022-08-17T18:06:18.660Z,41.90
2022-08-17T18:09:33.854Z,44.00
2022-08-17T18:12:40.916Z,44.17
2022-08-17T18:15:44.657Z,43.24
2022-08-17T18:18:46.826Z,44.90
2022-08-17T18:21:51.239Z,43.08
2022-08-17T18:24:54.272Z,43.70
2022-08-17T18:27:57.374Z,45.68
2022-08-17T18:31:07.174Z,47.95
2022-08-17T18:34:36.077Z,46.17
2022-08-17T18:37:42.311Z,48.14
2022-08-17T18:40:43.970Z,48.11
2022-08-17T18:43:57.498Z,50.87
2022-08-17T18:47:06.816Z,48.99
2022-08-17T18:50:23.905Z,49.68
2022-08-17T18:53:34.638Z,50.62
2022-08-17T18:56:37.123Z,50.70
2022-08-17T18:59:42.054Z,48.37
2022-08-17T19:02:51.977Z,48.54
2022-08-17T19:05:55.241Z,47.82
2022-08-17T19:08:56.972Z,51.16
2022-08-17T19:12:00.652Z,50.89
2022-08-17T19:15:05.148Z,50.98
2022-08-17T19:18:15.458Z,50.22
2022-08-17T19:21:20.488Z,50.41
2022-08-17T19:24:23.187Z,49.42
2022-08-17T19:27:32.148Z,50.01
2022-08-17T19:30:38.002Z,50.90
2022-08-17T19:33:43.644Z,53.08
2022-08-17T19:36:52.897Z,54.93
2022-08-17T19:39:59.459Z,53.23
2022-08-17T19:43:06.148Z,51.94
2022-08-17T19:46:15.052Z,56.85
2022-08-17T19:49:33.474Z,54.74
2022-08-17T19:52:47.003Z,51.09
2022-08-17T19:55:53.846Z,52.95
2022-08-17T19:58:58.415Z,54.07
2022-08-17T20:02:04.161Z,52.86
2022-08-17T20:05:08.523Z,55.88
2022-08-17T20:08:13.636Z,54.64
2022-08-17T20:11:18.811Z,53.41
2022-08-17T20:14:22.330Z,50.53
2022-08-17T20:17:28.407Z,51.49
2022-08-17T20:20:34.793Z,53.85
2022-08-17T20:23:42.457Z,51.87
2022-08-17T20:26:51.883Z,55.24
2022-08-17T20:30:07.965Z,56.14
2022-08-17T20:33:22.888Z,53.44
2022-08-17T20:36:24.580Z,54.96
2022-08-17T20:39:30.191Z,51.19
2022-08-17T20:42:35.914Z,48.57
2022-08-17T20:46:04.414Z,47.54
2022-08-17T20:49:18.847Z,49.03
2022-08-17T20:52:39.358Z,49.48
2022-08-17T20:55:54.355Z,48.78
2022-08-17T20:58:56.031Z,50.09
2022-08-17T21:02:02.841Z,49.62
2022-08-17T21:05:25.108Z,50.29
2022-08-17T21:08:28.547Z,49.24
2022-08-17T21:11:57.073Z,49.03
2022-08-17T21:15:07.895Z,48.69
2022-08-17T21:18:12.936Z,49.68
2022-08-17T21:21:21.292Z,51.06
2022-08-17T21:24:30.875Z,48.57
2022-08-17T21:27:37.082Z,45.70
2022-08-17T21:30:44.734Z,48.69
2022-08-17T21:34:06.778Z,47.64
2022-08-17T21:37:30.120Z,46.14
2022-08-17T21:40:33.389Z,47.11
2022-08-17T21:43:36.699Z,48.80
2022-08-17T21:46:40.330Z,47.97
2022-08-17T21:49:42.041Z,45.91
2022-08-17T21:52:45.227Z,49.82
2022-08-17T21:55:48.730Z,47.90
2022-08-17T21:58:55.608Z,48.42
2022-08-17T22:01:59.286Z,50.77
2022-08-17T22:05:02.055Z,50.14
2022-08-17T22:08:07.823Z,48.92
2022-08-17T22:11:18.360Z,49.50
2022-08-17T22:14:20.803Z,48.53
2022-08-17T22:17:23.685Z,50.43
2022-08-17T22:20:27.002Z,50.25
2022-08-17T22:23:31.518Z,52.52
2022-08-17T22:26:51.790Z,51.87
2022-08-17T22:29:57.137Z,53.68
2022-08-17T22:32:59.506Z,53.37
2022-08-17T22:36:19.668Z,55.63
2022-08-17T22:39:40.841Z,53.79
2022-08-17T22:42:44.275Z,53.67
2022-08-17T22:45:48.319Z,54.49
2022-08-17T22:48:55.971Z,54.03
2022-08-17T22:52:01.874Z,53.80
2022-08-17T22:55:09.303Z,52.98
2022-08-17T22:58:12.124Z,52.27
2022-08-17T23:01:24.656Z,50.79
2022-08-17T23:04:30.867Z,48.75
2022-08-17T23:07:32.550Z,47.58
2022-08-17T23:10:35.749Z,47.89
2022-08-17T23:13:37.441Z,49.97
2022-08-17T23:16:39.526Z,48.16
2022-08-17T23:19:41.337Z,49.40
2022-08-17T23:22:52.577Z,48.11
2022-08-17T23:25:56.117Z,48.88
2022-08-17T23:28:57.783Z,51.13
2022-08-17T23:32:00.055Z,50.51
2022-08-17T23:35:01.921Z,50.37
2022-08-17T23:38:03.684Z,50.42
2022-08-17T23:41:10.356Z,51.65
2022-08-17T23:44:12.519Z,50.19
2022-08-17T23:47:14.252Z,51.34
2022-08-17T23:50:16.123Z,53.26
2022-08-17T23:53:18.631Z,52.53
2022-08-17T23:56:22.665Z,51.27
2022-08-17T23:59:24.342Z,53.76
